createdAt,value
2018-03-31T00:00:09.815Z,18.50
2018-03-31T00:01:09.798Z,20.60
2018-03-31T00:02:09.774Z,20.90
2018-03-31T00:03:09.781Z,20.10
2018-03-31T00:04:09.743Z,20.50
2018-03-31T00:05:09.714Z,19.90
2018-03-31T00:06:09.698Z,19.50
2018-03-31T00:07:09.673Z,19.80
2018-03-31T00:08:09.653Z,20.20
2018-03-31T00:09:09.635Z,20.70
2018-03-31T00:10:09.615Z,19.30
2018-03-31T00:11:09.592Z,19.70
2018-03-31T00:12:09.580Z,19.70
2018-03-31T00:13:09.559Z,18.60
2018-03-31T00:14:09.536Z,19.20
2018-03-31T00:15:09.513Z,20.10
2018-03-31T00:16:09.674Z,19.00
2018-03-31T00:17:09.474Z,19.10
2018-03-31T00:18:09.452Z,17.50
2018-03-31T00:19:09.506Z,17.50
2018-03-31T00:20:09.413Z,18.60
2018-03-31T00:21:09.399Z,18.10
2018-03-31T00:22:09.373Z,18.40
2018-03-31T00:23:09.351Z,17.90
2018-03-31T00:24:09.339Z,17.80
2018-03-31T00:25:09.312Z,17.80
2018-03-31T00:26:09.292Z,17.70
2018-03-31T00:27:09.270Z,18.00
2018-03-31T00:28:09.256Z,17.90
2018-03-31T00:29:09.232Z,18.70
2018-03-31T00:30:09.213Z,19.80
2018-03-31T00:31:09.190Z,19.90
2018-03-31T00:32:09.175Z,18.60
2018-03-31T00:33:09.149Z,17.80
2018-03-31T00:34:09.130Z,18.10
2018-03-31T00:35:09.111Z,17.80
2018-03-31T00:36:09.098Z,18.20
2018-03-31T00:37:09.070Z,18.80
2018-03-31T00:38:09.050Z,16.90
2018-03-31T00:39:09.030Z,16.70
2018-03-31T00:40:09.011Z,17.40
2018-03-31T00:41:08.989Z,18.20
2018-03-31T00:42:08.989Z,18.30
2018-03-31T00:43:08.952Z,18.50
2018-03-31T00:44:08.932Z,18.60
2018-03-31T00:45:08.911Z,18.70
2018-03-31T00:46:08.902Z,18.70
2018-03-31T00:47:08.875Z,18.10
2018-03-31T00:48:08.859Z,18.20
2018-03-31T00:49:08.860Z,18.20
2018-03-31T00:50:08.810Z,18.60
2018-03-31T00:51:08.798Z,19.00
2018-03-31T00:52:08.779Z,19.10
2018-03-31T00:53:08.756Z,18.50
2018-03-31T00:54:08.734Z,18.60
2018-03-31T00:55:08.721Z,19.10
2018-03-31T00:56:08.692Z,19.50
2018-03-31T00:57:08.673Z,20.00
2018-03-31T00:58:08.654Z,20.00
2018-03-31T00:59:08.682Z,20.70
2018-03-31T01:00:08.616Z,20.10
2018-03-31T01:01:08.593Z,20.50
2018-03-31T01:02:08.572Z,21.50
2018-03-31T01:03:08.560Z,20.80
2018-03-31T01:04:08.533Z,21.60
2018-03-31T01:05:08.525Z,20.70
2018-03-31T01:06:08.497Z,21.30
2018-03-31T01:07:08.475Z,22.50
2018-03-31T01:08:08.464Z,20.90
2018-03-31T01:09:08.433Z,22.60
2018-03-31T01:10:08.428Z,22.30
2018-03-31T01:11:08.395Z,23.20
2018-03-31T01:12:08.376Z,23.60
2018-03-31T01:13:08.356Z,22.40
2018-03-31T01:14:08.336Z,22.10
2018-03-31T01:15:08.318Z,22.30
2018-03-31T01:16:08.295Z,22.20
2018-03-31T01:17:08.327Z,23.00
2018-03-31T01:18:08.262Z,24.30
2018-03-31T01:19:08.241Z,23.90
2018-03-31T01:20:08.218Z,24.40
2018-03-31T01:21:08.194Z,23.90
2018-03-31T01:22:08.175Z,24.70
2018-03-31T01:23:08.154Z,25.90
2018-03-31T01:24:08.129Z,26.80
2018-03-31T01:25:08.114Z,26.10
2018-03-31T01:26:08.094Z,26.10
2018-03-31T01:27:08.074Z,26.10
2018-03-31T01:28:08.055Z,26.10
2018-03-31T01:29:08.033Z,26.80
2018-03-31T01:30:08.013Z,27.60
2018-03-31T01:31:07.996Z,26.70
2018-03-31T01:32:07.990Z,28.10
2018-03-31T01:33:07.949Z,27.20
2018-03-31T01:34:07.929Z,29.30
2018-03-31T01:35:07.958Z,30.10
2018-03-31T01:36:07.899Z,29.10
2018-03-31T01:37:07.868Z,28.80
2018-03-31T01:38:07.849Z,28.60
2018-03-31T01:39:07.835Z,28.20
2018-03-31T01:40:07.804Z,29.80
2018-03-31T01:41:07.785Z,29.00
2018-03-31T01:42:07.772Z,27.80
2018-03-31T01:43:07.744Z,29.30
2018-03-31T01:44:07.725Z,28.90
2018-03-31T01:45:07.704Z,29.30
2018-03-31T01:46:07.692Z,28.70
2018-03-31T01:47:07.664Z,28.60
2018-03-31T01:48:07.644Z,29.70
2018-03-31T01:49:07.627Z,27.70
2018-03-31T01:50:07.601Z,28.60
2018-03-31T01:51:07.681Z,27.90
2018-03-31T01:52:07.561Z,28.20
2018-03-31T01:53:07.545Z,28.10
2018-03-31T01:54:07.557Z,28.20
2018-03-31T01:55:07.501Z,27.60
2018-03-31T01:56:07.481Z,28.10
2018-03-31T01:57:07.459Z,28.20
2018-03-31T01:58:07.441Z,27.70
2018-03-31T01:59:07.421Z,27.80
2018-03-31T02:00:07.402Z,28.00
2018-03-31T02:01:07.417Z,29.90
2018-03-31T02:02:07.355Z,29.40
2018-03-31T02:03:07.348Z,30.00
2018-03-31T02:04:07.315Z,29.30
2018-03-31T02:05:07.295Z,31.40
2018-03-31T02:06:07.275Z,30.20
2018-03-31T02:07:07.256Z,31.50
2018-03-31T02:08:07.233Z,30.00
2018-03-31T02:09:07.213Z,31.10
2018-03-31T02:10:07.192Z,31.30
2018-03-31T02:11:07.194Z,30.10
2018-03-31T02:12:07.159Z,32.60
2018-03-31T02:13:07.138Z,30.70
2018-03-31T02:14:07.111Z,30.10
2018-03-31T02:15:07.088Z,27.90
2018-03-31T02:16:07.065Z,29.00
2018-03-31T02:17:07.057Z,27.90
2018-03-31T02:18:07.034Z,27.90
2018-03-31T02:19:07.004Z,28.50
2018-03-31T02:20:06.980Z,26.40
2018-03-31T02:21:06.963Z,27.50
2018-03-31T02:22:06.942Z,27.10
2018-03-31T02:23:06.920Z,26.90
2018-03-31T02:24:06.911Z,26.60
2018-03-31T02:25:06.877Z,26.60
2018-03-31T02:26:06.857Z,26.40
2018-03-31T02:27:06.844Z,26.30
2018-03-31T02:28:06.816Z,25.40
2018-03-31T02:29:06.793Z,25.70
2018-03-31T02:30:06.773Z,24.90
2018-03-31T02:31:06.752Z,24.30
2018-03-31T02:32:06.730Z,24.20
2018-03-31T02:33:06.709Z,23.30
2018-03-31T02:34:06.686Z,23.60
2018-03-31T02:35:06.670Z,24.00
2018-03-31T02:36:06.646Z,22.70
2018-03-31T02:37:06.626Z,22.30
2018-03-31T02:38:06.600Z,22.20
2018-03-31T02:39:06.582Z,21.60
2018-03-31T02:40:06.559Z,21.80
2018-03-31T02:41:06.540Z,21.80
2018-03-31T02:42:06.519Z,20.90
2018-03-31T02:43:06.512Z,21.30
2018-03-31T02:44:06.483Z,20.60
2018-03-31T02:45:06.455Z,19.70
2018-03-31T02:46:06.537Z,20.50
2018-03-31T02:47:06.416Z,21.40
2018-03-31T02:48:06.394Z,21.00
2018-03-31T02:49:06.374Z,21.20
2018-03-31T02:50:06.351Z,21.80
2018-03-31T02:51:06.334Z,21.10
2018-03-31T02:52:06.308Z,22.00
2018-03-31T02:53:06.292Z,21.10
2018-03-31T02:54:06.278Z,22.00
2018-03-31T02:55:06.248Z,22.50
2018-03-31T02:56:06.239Z,23.30
2018-03-31T02:57:06.208Z,22.90
2018-03-31T02:58:06.189Z,23.90
2018-03-31T02:59:06.167Z,23.20
2018-03-31T03:00:06.145Z,21.90
2018-03-31T03:01:06.125Z,22.30
2018-03-31T03:02:06.104Z,22.80
2018-03-31T03:03:06.085Z,21.80
2018-03-31T03:04:06.059Z,21.80
2018-03-31T03:05:06.042Z,19.30
2018-03-31T03:06:06.022Z,19.50
2018-03-31T03:07:05.999Z,19.40
2018-03-31T03:08:05.975Z,19.90
2018-03-31T03:09:05.958Z,19.60
2018-03-31T03:10:05.935Z,19.50
2018-03-31T03:11:05.920Z,18.60
2018-03-31T03:12:05.892Z,18.20
2018-03-31T03:13:05.892Z,18.50
2018-03-31T03:14:05.859Z,19.30
2018-03-31T03:15:05.851Z,19.20
2018-03-31T03:16:05.917Z,18.20
2018-03-31T03:17:05.790Z,18.90
2018-03-31T03:18:05.776Z,19.20
2018-03-31T03:19:05.754Z,17.80
2018-03-31T03:20:05.745Z,19.80
2018-03-31T03:21:05.711Z,18.80
2018-03-31T03:22:05.690Z,19.20
2018-03-31T03:23:05.671Z,18.70
2018-03-31T03:24:05.644Z,18.90
2018-03-31T03:25:05.630Z,18.40
2018-03-31T03:26:05.605Z,19.00
2018-03-31T03:27:05.586Z,18.40
2018-03-31T03:28:05.567Z,18.20
2018-03-31T03:29:05.549Z,18.50
2018-03-31T03:30:05.523Z,18.20
2018-03-31T03:31:05.504Z,18.30
2018-03-31T03:32:05.481Z,18.50
2018-03-31T03:33:05.464Z,18.10
2018-03-31T03:34:05.442Z,18.10
2018-03-31T03:35:05.429Z,19.10
2018-03-31T03:36:05.404Z,18.80
2018-03-31T03:37:05.379Z,18.80
2018-03-31T03:38:05.361Z,18.90
2018-03-31T03:39:05.376Z,18.50
2018-03-31T03:40:05.319Z,19.70
2018-03-31T03:41:05.304Z,18.50
2018-03-31T03:42:05.279Z,19.70
2018-03-31T03:43:05.260Z,19.70
2018-03-31T03:44:05.238Z,19.20
2018-03-31T03:45:05.233Z,19.70
2018-03-31T03:46:05.199Z,19.70
2018-03-31T03:47:05.177Z,19.80
2018-03-31T03:48:05.153Z,20.00
2018-03-31T03:49:05.132Z,19.80
2018-03-31T03:50:05.115Z,20.40
2018-03-31T03:51:05.098Z,21.00
2018-03-31T03:52:05.069Z,21.30
2018-03-31T03:53:05.050Z,20.80
2018-03-31T03:54:05.119Z,20.60
2018-03-31T03:55:05.018Z,20.40
2018-03-31T03:56:04.989Z,21.90
2018-03-31T03:57:05.019Z,21.00
2018-03-31T03:58:04.954Z,20.30
2018-03-31T03:59:04.931Z,20.80
2018-03-31T04:00:04.916Z,20.00
2018-03-31T04:01:04.887Z,20.30
2018-03-31T04:02:04.966Z,21.00
2018-03-31T04:03:04.848Z,19.60
2018-03-31T04:04:04.826Z,20.40
2018-03-31T04:05:04.858Z,20.60
2018-03-31T04:06:04.796Z,20.50
2018-03-31T04:07:04.769Z,19.60
2018-03-31T04:08:04.746Z,20.40
2018-03-31T04:09:04.724Z,21.30
2018-03-31T04:10:04.708Z,20.60
2018-03-31T04:11:04.685Z,20.80
2018-03-31T04:12:04.664Z,21.70
2018-03-31T04:13:04.645Z,21.40
2018-03-31T04:14:04.625Z,22.20
2018-03-31T04:15:04.604Z,22.30
2018-03-31T04:16:04.583Z,22.20
2018-03-31T04:17:04.559Z,23.10
2018-03-31T04:18:04.539Z,25.20
2018-03-31T04:19:04.542Z,24.60
2018-03-31T04:20:04.496Z,23.90
2018-03-31T04:21:04.486Z,24.30
2018-03-31T04:22:04.458Z,22.60
2018-03-31T04:23:04.439Z,24.80
2018-03-31T04:24:04.426Z,24.50
2018-03-31T04:25:04.395Z,24.90
2018-03-31T04:26:04.375Z,25.50
2018-03-31T04:27:04.409Z,24.50
2018-03-31T04:28:04.337Z,25.90
2018-03-31T04:29:04.313Z,25.20
2018-03-31T04:30:04.294Z,25.90
2018-03-31T04:31:04.273Z,26.30
2018-03-31T04:32:04.252Z,27.20
2018-03-31T04:33:04.237Z,26.50
2018-03-31T04:34:04.222Z,26.80
2018-03-31T04:35:04.193Z,26.30
2018-03-31T04:36:04.171Z,26.80
2018-03-31T04:37:04.147Z,27.40
2018-03-31T04:38:04.128Z,26.10
2018-03-31T04:39:04.105Z,26.50
2018-03-31T04:40:04.086Z,28.40
2018-03-31T04:41:04.064Z,26.90
2018-03-31T04:42:04.044Z,27.20
2018-03-31T04:43:04.022Z,27.70
2018-03-31T04:44:04.003Z,27.70
2018-03-31T04:45:03.980Z,28.90
2018-03-31T04:46:03.970Z,30.00
2018-03-31T04:47:03.942Z,29.90
2018-03-31T04:48:03.928Z,28.80
2018-03-31T04:49:03.912Z,29.40
2018-03-31T04:50:03.892Z,30.60
2018-03-31T04:51:03.864Z,30.10
2018-03-31T04:52:03.837Z,29.30
2018-03-31T04:53:03.816Z,29.30
2018-03-31T04:54:03.883Z,30.10
2018-03-31T04:55:03.773Z,30.60
2018-03-31T04:56:03.753Z,30.70
2018-03-31T04:57:03.735Z,29.40
2018-03-31T04:58:03.712Z,30.10
2018-03-31T04:59:03.688Z,30.60
2018-03-31T05:00:03.670Z,31.00
2018-03-31T05:01:03.657Z,31.60
2018-03-31T05:02:03.625Z,31.20
2018-03-31T05:03:03.612Z,32.00
2018-03-31T05:04:03.586Z,30.90
2018-03-31T05:05:03.572Z,30.80
2018-03-31T05:06:03.552Z,31.80
2018-03-31T05:07:03.522Z,32.20
2018-03-31T05:08:03.498Z,31.40
2018-03-31T05:09:03.478Z,31.90
2018-03-31T05:10:03.459Z,32.20
2018-03-31T05:11:03.439Z,32.80
2018-03-31T05:12:03.417Z,32.90
2018-03-31T05:13:03.439Z,32.50
2018-03-31T05:14:03.377Z,32.40
2018-03-31T05:15:03.361Z,33.10
2018-03-31T05:16:03.333Z,32.70
2018-03-31T05:17:03.310Z,33.60
2018-03-31T05:18:03.300Z,34.10
2018-03-31T05:19:03.269Z,33.50
2018-03-31T05:20:03.246Z,33.80
2018-03-31T05:21:03.229Z,34.40
2018-03-31T05:22:03.208Z,34.50
2018-03-31T05:23:03.182Z,36.30
2018-03-31T05:24:03.162Z,37.40
2018-03-31T05:25:03.141Z,36.40
2018-03-31T05:26:03.121Z,35.50
2018-03-31T05:27:03.100Z,35.10
2018-03-31T05:28:03.075Z,36.10
2018-03-31T05:29:03.066Z,35.50
2018-03-31T05:30:03.036Z,37.00
2018-03-31T05:31:03.017Z,35.90
2018-03-31T05:32:03.505Z,36.20
2018-03-31T05:33:02.976Z,36.70
2018-03-31T05:34:02.950Z,34.90
2018-03-31T05:35:02.973Z,34.70
2018-03-31T05:36:02.907Z,35.70
2018-03-31T05:37:02.887Z,35.00
2018-03-31T05:38:02.866Z,37.00
2018-03-31T05:39:02.847Z,35.00
2018-03-31T05:40:02.826Z,34.80
2018-03-31T05:41:02.811Z,34.70
2018-03-31T05:42:02.790Z,34.60
2018-03-31T05:43:02.764Z,34.40
2018-03-31T05:44:02.739Z,34.00
2018-03-31T05:45:02.725Z,33.10
2018-03-31T05:46:02.704Z,35.70
2018-03-31T05:47:02.678Z,34.40
2018-03-31T05:48:02.656Z,35.20
2018-03-31T05:49:02.636Z,34.20
2018-03-31T05:50:02.620Z,35.00
2018-03-31T05:51:02.593Z,34.90
2018-03-31T05:52:02.579Z,34.80
2018-03-31T05:53:02.553Z,33.60
2018-03-31T05:54:02.536Z,34.20
2018-03-31T05:55:02.515Z,33.20
2018-03-31T05:56:02.493Z,32.30
2018-03-31T05:57:02.472Z,32.60
2018-03-31T05:58:02.448Z,32.80
2018-03-31T05:59:02.427Z,33.80
2018-03-31T06:00:02.415Z,32.80
2018-03-31T06:01:02.386Z,31.70
2018-03-31T06:02:02.437Z,30.80
2018-03-31T06:03:02.344Z,31.20
2018-03-31T06:04:02.325Z,31.00
2018-03-31T06:05:02.313Z,29.50
2018-03-31T06:06:02.281Z,29.40
2018-03-31T06:07:02.261Z,30.50
2018-03-31T06:08:02.341Z,29.20
2018-03-31T06:09:02.225Z,29.30
2018-03-31T06:10:02.202Z,28.30
2018-03-31T06:11:02.180Z,27.80
2018-03-31T06:12:02.163Z,28.10
2018-03-31T06:13:02.141Z,29.40
2018-03-31T06:14:02.127Z,28.40
2018-03-31T06:15:02.112Z,28.90
2018-03-31T06:16:02.080Z,28.30
2018-03-31T06:17:02.059Z,29.50
2018-03-31T06:18:02.038Z,29.40
2018-03-31T06:19:02.019Z,28.70
2018-03-31T06:20:01.994Z,29.00
2018-03-31T06:21:01.984Z,28.90
2018-03-31T06:22:01.955Z,27.90
2018-03-31T06:23:01.940Z,28.80
2018-03-31T06:24:02.049Z,28.80
2018-03-31T06:25:01.895Z,28.80
2018-03-31T06:26:01.880Z,28.90
2018-03-31T06:27:01.868Z,26.10
2018-03-31T06:28:01.839Z,26.80
2018-03-31T06:29:01.827Z,27.40
2018-03-31T06:30:01.803Z,26.80
2018-03-31T06:31:01.779Z,27.60
2018-03-31T06:32:01.758Z,26.10
2018-03-31T06:33:01.738Z,24.90
2018-03-31T06:34:01.718Z,24.70
2018-03-31T06:35:01.702Z,26.20
2018-03-31T06:36:01.680Z,26.30
2018-03-31T06:37:01.660Z,26.90
2018-03-31T06:38:01.644Z,25.60
2018-03-31T06:39:01.628Z,24.40
2018-03-31T06:40:01.607Z,24.50
2018-03-31T06:41:01.587Z,25.70
2018-03-31T06:42:01.566Z,25.40
2018-03-31T06:43:01.554Z,25.00
2018-03-31T06:44:01.527Z,40.90
2018-03-31T06:45:01.517Z,25.20
2018-03-31T06:46:01.489Z,27.00
2018-03-31T06:47:01.472Z,26.30
2018-03-31T06:48:01.451Z,24.60
2018-03-31T06:49:01.449Z,26.00
2018-03-31T06:50:01.417Z,25.30
2018-03-31T06:51:01.529Z,24.40
2018-03-31T06:52:01.376Z,25.10
2018-03-31T06:53:01.359Z,24.90
2018-03-31T06:54:01.347Z,24.10
2018-03-31T06:55:01.321Z,25.00
2018-03-31T06:56:01.306Z,24.30
2018-03-31T06:57:01.285Z,24.20
2018-03-31T06:58:01.266Z,24.30
2018-03-31T06:59:01.256Z,24.10
2018-03-31T07:00:01.237Z,25.00
2018-03-31T07:01:01.210Z,24.60
2018-03-31T07:02:01.194Z,25.50
2018-03-31T07:03:01.180Z,24.30
2018-03-31T07:04:01.155Z,25.40
2018-03-31T07:05:01.144Z,25.60
2018-03-31T07:06:01.119Z,24.70
2018-03-31T07:07:01.210Z,24.80
2018-03-31T07:08:01.085Z,25.20
2018-03-31T07:09:01.064Z,24.10
2018-03-31T07:10:01.049Z,23.80
2018-03-31T07:11:01.035Z,23.60
2018-03-31T07:12:01.009Z,24.70
2018-03-31T07:13:00.995Z,24.80
2018-03-31T07:14:00.977Z,24.00
2018-03-31T07:15:00.972Z,23.20
2018-03-31T07:16:00.936Z,23.70
2018-03-31T07:17:00.919Z,23.70
2018-03-31T07:18:00.900Z,23.90
2018-03-31T07:19:00.882Z,25.70
2018-03-31T07:20:00.871Z,25.30
2018-03-31T07:21:00.853Z,25.60
2018-03-31T07:22:00.827Z,26.80
2018-03-31T07:23:00.810Z,24.10
2018-03-31T07:24:00.790Z,24.50
2018-03-31T07:25:00.774Z,23.60
2018-03-31T07:26:00.778Z,23.60
2018-03-31T07:27:00.740Z,22.70
2018-03-31T07:28:00.727Z,22.90
2018-03-31T07:29:00.703Z,22.80
2018-03-31T07:30:00.691Z,23.40
2018-03-31T07:31:00.664Z,23.90
2018-03-31T07:32:00.646Z,22.30
2018-03-31T07:33:00.632Z,22.40
2018-03-31T07:34:00.610Z,22.60
2018-03-31T07:35:00.594Z,21.70
2018-03-31T07:36:00.576Z,21.70
2018-03-31T07:37:00.557Z,21.30
2018-03-31T07:38:00.541Z,20.90
2018-03-31T07:39:00.522Z,21.20
2018-03-31T07:40:00.509Z,20.80
2018-03-31T07:41:00.491Z,20.90
2018-03-31T07:42:00.470Z,20.50
2018-03-31T07:43:00.452Z,19.70
2018-03-31T07:44:00.442Z,19.50
2018-03-31T07:45:00.434Z,19.60
2018-03-31T07:46:00.446Z,18.30
2018-03-31T07:47:00.384Z,17.40
2018-03-31T07:48:00.378Z,17.20
2018-03-31T07:49:00.350Z,17.30
2018-03-31T07:50:00.334Z,16.70
2018-03-31T07:51:00.326Z,16.50
2018-03-31T07:52:00.334Z,16.30
2018-03-31T07:53:00.287Z,16.10
2018-03-31T07:54:00.277Z,16.60
2018-03-31T07:55:00.253Z,15.80
2018-03-31T07:56:00.240Z,17.50
2018-03-31T07:57:00.218Z,16.60
2018-03-31T07:58:00.211Z,15.60
2018-03-31T07:59:00.299Z,14.70
2018-03-31T08:00:00.173Z,16.20
2018-03-31T08:01:00.220Z,15.60
2018-03-31T08:02:00.200Z,16.30
2018-03-31T08:03:00.134Z,15.90
2018-03-31T08:04:00.114Z,15.50
2018-03-31T08:05:00.101Z,14.50
2018-03-31T08:06:00.085Z,13.50
2018-03-31T08:07:00.076Z,13.70
2018-03-31T08:08:00.053Z,13.40
2018-03-31T08:09:00.050Z,13.10
2018-03-31T08:10:00.059Z,13.70
2018-03-31T08:11:00.017Z,15.50
2018-03-31T08:12:00.006Z,26.90
2018-03-31T08:12:59.999Z,14.60
2018-03-31T08:13:59.968Z,13.20
2018-03-31T08:14:59.988Z,13.80
2018-03-31T08:15:59.945Z,12.70
2018-03-31T08:16:59.933Z,11.50
2018-03-31T08:18:00.031Z,11.10
2018-03-31T08:18:59.906Z,11.10
2018-03-31T08:19:59.897Z,10.80
2018-03-31T08:20:59.888Z,11.30
2018-03-31T08:21:59.868Z,11.90
2018-03-31T08:22:59.878Z,11.40
2018-03-31T08:23:59.853Z,11.50
2018-03-31T08:24:59.834Z,11.30
2018-03-31T08:25:59.837Z,11.80
2018-03-31T08:26:59.816Z,11.20
2018-03-31T08:27:59.799Z,11.80
2018-03-31T08:28:59.793Z,18.30
2018-03-31T08:29:59.778Z,16.50
2018-03-31T08:30:59.767Z,12.40
2018-03-31T08:31:59.756Z,11.50
2018-03-31T08:32:59.745Z,9.80
2018-03-31T08:33:59.734Z,9.40
2018-03-31T08:34:59.724Z,10.00
2018-03-31T08:35:59.714Z,9.60
2018-03-31T08:36:59.708Z,9.80
2018-03-31T08:37:59.693Z,9.20
2018-03-31T08:38:59.684Z,9.40
2018-03-31T08:39:59.673Z,9.60
2018-03-31T08:40:59.663Z,9.00
2018-03-31T08:41:59.716Z,10.00
2018-03-31T08:42:59.638Z,9.20
2018-03-31T08:43:59.643Z,8.90
2018-03-31T08:44:59.622Z,8.70
2018-03-31T08:45:59.611Z,9.10
2018-03-31T08:46:59.602Z,8.80
2018-03-31T08:47:59.587Z,9.10
2018-03-31T08:48:59.585Z,8.60
2018-03-31T08:49:59.565Z,9.60
2018-03-31T08:50:59.557Z,8.50
2018-03-31T08:51:59.617Z,8.20
2018-03-31T08:52:59.533Z,7.80
2018-03-31T08:53:59.523Z,7.80
2018-03-31T08:54:59.515Z,8.00
2018-03-31T08:55:59.503Z,9.10
2018-03-31T08:56:59.492Z,9.30
2018-03-31T08:57:59.487Z,8.90
2018-03-31T08:58:59.471Z,8.40
2018-03-31T08:59:59.465Z,9.10
2018-03-31T09:00:59.462Z,8.90
2018-03-31T09:01:59.460Z,8.70
2018-03-31T09:02:59.435Z,9.30
2018-03-31T09:03:59.424Z,8.60
2018-03-31T09:04:59.490Z,8.70
2018-03-31T09:05:59.413Z,8.50
2018-03-31T09:06:59.408Z,8.50
2018-03-31T09:07:59.394Z,9.30
2018-03-31T09:08:59.395Z,9.90
2018-03-31T09:09:59.380Z,8.10
2018-03-31T09:10:59.370Z,7.40
2018-03-31T09:11:59.358Z,7.30
2018-03-31T09:12:59.361Z,7.50
2018-03-31T09:13:59.356Z,7.70
2018-03-31T09:14:59.340Z,7.10
2018-03-31T09:15:59.331Z,7.40
2018-03-31T09:16:59.323Z,7.90
2018-03-31T09:17:59.333Z,7.90
2018-03-31T09:18:59.317Z,7.60
2018-03-31T09:19:59.311Z,7.20
2018-03-31T09:20:59.297Z,8.60
2018-03-31T09:21:59.389Z,7.30
2018-03-31T09:22:59.333Z,7.20
2018-03-31T09:23:59.280Z,7.20
2018-03-31T09:24:59.276Z,6.80
2018-03-31T09:25:59.274Z,6.90
2018-03-31T09:26:59.267Z,6.40
2018-03-31T09:27:59.423Z,6.60
2018-03-31T09:28:59.272Z,8.80
2018-03-31T09:29:59.251Z,8.90
2018-03-31T09:30:59.251Z,7.10
2018-03-31T09:31:59.239Z,6.40
2018-03-31T09:32:59.291Z,6.40
2018-03-31T09:33:59.237Z,6.50
2018-03-31T09:34:59.230Z,7.00
2018-03-31T09:35:59.225Z,6.50
2018-03-31T09:36:59.216Z,6.50
2018-03-31T09:37:59.218Z,6.40
2018-03-31T09:38:59.211Z,6.40
2018-03-31T09:39:59.229Z,6.90
2018-03-31T09:40:59.202Z,6.30
2018-03-31T09:41:59.200Z,5.70
2018-03-31T09:42:59.188Z,6.50
2018-03-31T09:43:59.184Z,6.30
2018-03-31T09:44:59.179Z,6.00
2018-03-31T09:45:59.175Z,6.20
2018-03-31T09:46:59.174Z,6.00
2018-03-31T09:47:59.274Z,6.00
2018-03-31T09:48:59.164Z,6.00
2018-03-31T09:49:59.160Z,5.60
2018-03-31T09:50:59.176Z,4.20
2018-03-31T09:51:59.155Z,2.40
2018-03-31T09:52:59.150Z,2.90
2018-03-31T09:53:59.149Z,3.10
2018-03-31T09:54:59.152Z,3.40
2018-03-31T09:55:59.142Z,4.00
2018-03-31T09:56:59.142Z,3.90
2018-03-31T09:57:59.139Z,3.90
2018-03-31T09:58:59.134Z,4.50
2018-03-31T09:59:59.133Z,4.20
2018-03-31T10:00:59.138Z,4.70
2018-03-31T10:01:59.132Z,4.90
2018-03-31T10:02:59.126Z,4.90
2018-03-31T10:03:59.134Z,5.10
2018-03-31T10:04:59.123Z,4.90
2018-03-31T10:05:59.256Z,5.10
2018-03-31T10:06:59.131Z,5.70
2018-03-31T10:07:59.115Z,7.10
2018-03-31T10:08:59.117Z,8.20
2018-03-31T10:09:59.124Z,6.20
2018-03-31T10:10:59.112Z,5.60
2018-03-31T10:11:59.107Z,5.40
2018-03-31T10:12:59.107Z,5.20
2018-03-31T10:13:59.103Z,5.20
2018-03-31T10:14:59.152Z,4.90
2018-03-31T10:15:59.112Z,5.40
2018-03-31T10:16:59.107Z,4.70
2018-03-31T10:17:59.103Z,5.50
2018-03-31T10:18:59.103Z,4.90
2018-03-31T10:19:59.094Z,5.80
2018-03-31T10:20:59.093Z,5.80
2018-03-31T10:21:59.094Z,4.90
2018-03-31T10:22:59.090Z,5.00
2018-03-31T10:23:59.093Z,5.50
2018-03-31T10:24:59.082Z,5.40
2018-03-31T10:25:59.080Z,5.70
2018-03-31T10:26:59.084Z,6.00
2018-03-31T10:27:59.085Z,5.70
2018-03-31T10:28:59.077Z,5.60
2018-03-31T10:29:59.075Z,5.10
2018-03-31T10:30:59.077Z,5.20
2018-03-31T10:31:59.059Z,5.20
2018-03-31T10:32:59.069Z,5.80
2018-03-31T10:33:59.056Z,6.40
2018-03-31T10:34:59.049Z,5.50
2018-03-31T10:35:59.054Z,8.00
2018-03-31T10:36:59.047Z,5.80
2018-03-31T10:37:59.039Z,5.90
2018-03-31T10:38:59.032Z,5.40
2018-03-31T10:39:59.036Z,5.10
2018-03-31T10:40:59.035Z,4.80
2018-03-31T10:41:59.025Z,5.00
2018-03-31T10:42:59.025Z,4.80
2018-03-31T10:43:59.018Z,4.60
2018-03-31T10:44:59.011Z,4.50
2018-03-31T10:45:59.100Z,5.20
2018-03-31T10:46:59.010Z,4.80
2018-03-31T10:47:59.014Z,4.40
2018-03-31T10:48:59.093Z,4.60
2018-03-31T10:49:59.001Z,4.00
2018-03-31T10:50:59.000Z,4.40
2018-03-31T10:51:58.997Z,4.80
2018-03-31T10:52:58.992Z,4.60
2018-03-31T10:53:58.997Z,5.10
2018-03-31T10:54:58.989Z,4.20
2018-03-31T10:55:58.988Z,4.30
2018-03-31T10:56:58.988Z,4.10
2018-03-31T10:57:58.989Z,4.10
2018-03-31T10:58:58.992Z,4.00
2018-03-31T10:59:58.989Z,4.20
2018-03-31T11:00:58.988Z,4.40
2018-03-31T11:01:58.976Z,4.20
2018-03-31T11:02:58.980Z,4.50
2018-03-31T11:03:58.968Z,5.00
2018-03-31T11:04:58.965Z,5.00
2018-03-31T11:05:58.984Z,5.10
2018-03-31T11:06:58.962Z,5.20
2018-03-31T11:07:58.960Z,4.70
2018-03-31T11:08:58.956Z,4.80
2018-03-31T11:09:58.956Z,5.30
2018-03-31T11:10:58.946Z,4.80
2018-03-31T11:11:58.944Z,5.30
2018-03-31T11:12:58.940Z,4.90
2018-03-31T11:13:58.938Z,4.10
2018-03-31T11:14:58.936Z,4.60
2018-03-31T11:15:58.940Z,5.70
2018-03-31T11:16:58.927Z,9.50
2018-03-31T11:17:58.934Z,6.00
2018-03-31T11:18:58.957Z,5.20
2018-03-31T11:19:58.917Z,4.70
2018-03-31T11:20:58.923Z,4.50
2018-03-31T11:21:58.969Z,4.70
2018-03-31T11:22:58.911Z,4.90
2018-03-31T11:23:58.902Z,4.60
2018-03-31T11:24:58.930Z,5.20
2018-03-31T11:25:58.899Z,5.30
2018-03-31T11:26:58.893Z,5.80
2018-03-31T11:27:58.893Z,5.20
2018-03-31T11:28:58.887Z,5.30
2018-03-31T11:29:58.883Z,5.60
2018-03-31T11:30:58.883Z,5.30
2018-03-31T11:31:58.877Z,5.20
2018-03-31T11:32:58.876Z,5.50
2018-03-31T11:33:58.901Z,5.90
2018-03-31T11:34:58.883Z,4.80
2018-03-31T11:35:58.864Z,5.50
2018-03-31T11:36:58.858Z,5.60
2018-03-31T11:37:58.859Z,5.80
2018-03-31T11:38:58.853Z,6.10
2018-03-31T11:39:58.845Z,6.00
2018-03-31T11:40:58.842Z,5.70
2018-03-31T11:41:58.834Z,5.50
2018-03-31T11:42:58.829Z,5.80
2018-03-31T11:43:58.822Z,5.40
2018-03-31T11:44:58.824Z,5.10
2018-03-31T11:45:58.811Z,4.80
2018-03-31T11:46:58.804Z,4.70
2018-03-31T11:47:58.810Z,4.60
2018-03-31T11:48:58.846Z,4.90
2018-03-31T11:49:58.787Z,5.00
2018-03-31T11:50:58.782Z,5.00
2018-03-31T11:51:58.773Z,5.10
2018-03-31T11:52:58.858Z,4.70
2018-03-31T11:53:58.759Z,4.90
2018-03-31T11:54:58.767Z,4.60
2018-03-31T11:55:58.750Z,5.20
2018-03-31T11:56:58.740Z,5.10
2018-03-31T11:57:58.750Z,5.20
2018-03-31T11:58:58.766Z,5.60
2018-03-31T11:59:58.721Z,5.30
2018-03-31T12:00:58.720Z,5.50
2018-03-31T12:01:58.712Z,4.90
2018-03-31T12:02:58.713Z,5.10
2018-03-31T12:03:58.700Z,5.30
2018-03-31T12:04:58.738Z,4.90
2018-03-31T12:05:58.679Z,5.30
2018-03-31T12:06:58.673Z,4.80
2018-03-31T12:07:58.662Z,4.50
2018-03-31T12:08:58.660Z,4.50
2018-03-31T12:09:58.647Z,4.70
2018-03-31T12:10:58.647Z,4.60
2018-03-31T12:11:58.633Z,5.00
2018-03-31T12:12:58.685Z,4.60
2018-03-31T12:13:58.619Z,4.80
2018-03-31T12:14:58.608Z,4.80
2018-03-31T12:15:58.608Z,4.30
2018-03-31T12:16:58.589Z,4.60
2018-03-31T12:17:58.588Z,4.20
2018-03-31T12:18:58.579Z,6.20
2018-03-31T12:19:58.573Z,5.20
2018-03-31T12:20:58.558Z,7.10
2018-03-31T12:21:58.549Z,7.90
2018-03-31T12:22:58.529Z,6.30
2018-03-31T12:23:58.527Z,5.60
2018-03-31T12:24:58.517Z,5.90
2018-03-31T12:25:58.644Z,5.80
2018-03-31T12:26:58.489Z,5.80
2018-03-31T12:27:58.483Z,5.80
2018-03-31T12:28:58.502Z,6.30
2018-03-31T12:29:58.465Z,7.10
2018-03-31T12:30:58.446Z,6.10
2018-03-31T12:31:58.437Z,6.30
2018-03-31T12:32:58.425Z,5.90
2018-03-31T12:33:58.414Z,6.80
2018-03-31T12:34:58.399Z,6.80
2018-03-31T12:35:58.394Z,6.10
2018-03-31T12:36:58.377Z,6.80
2018-03-31T12:37:58.365Z,6.50
2018-03-31T12:38:58.355Z,6.20
2018-03-31T12:39:58.357Z,5.90
2018-03-31T12:40:58.328Z,5.90
2018-03-31T12:41:58.320Z,6.10
2018-03-31T12:42:58.307Z,5.60
2018-03-31T12:43:58.303Z,5.90
2018-03-31T12:44:58.290Z,5.70
2018-03-31T12:45:58.281Z,5.90
2018-03-31T12:46:58.260Z,5.70
2018-03-31T12:47:58.249Z,5.70
2018-03-31T12:48:58.236Z,5.90
2018-03-31T12:49:58.230Z,5.80
2018-03-31T12:50:58.223Z,6.00
2018-03-31T12:51:58.198Z,5.60
2018-03-31T12:52:58.188Z,5.90
2018-03-31T12:53:58.175Z,6.10
2018-03-31T12:54:58.167Z,6.30
2018-03-31T12:55:58.153Z,5.80
2018-03-31T12:56:58.136Z,5.90
2018-03-31T12:57:58.126Z,6.10
2018-03-31T12:58:58.188Z,6.30
2018-03-31T12:59:58.101Z,6.30
2018-03-31T13:00:58.088Z,6.00